sensor_id;sensor_type;location;lat;lon;timestamp;P1;durP1;ratioP1;P2;durP2;ratioP2
16804;SDS011;8520;50.102;20.010;2022-09-04T00:02:32;34.57;;;32.67;;
16804;SDS011;8520;50.102;20.010;2022-09-04T00:05:34;34.90;;;33.00;;
16804;SDS011;8520;50.102;20.010;2022-09-04T00:08:39;35.10;;;33.30;;
16804;SDS011;8520;50.102;20.010;2022-09-04T00:11:39;36.70;;;34.73;;
16804;SDS011;8520;50.102;20.010;2022-09-04T00:14:35;35.47;;;33.67;;
16804;SDS011;8520;50.102;20.010;2022-09-04T00:17:28;35.87;;;34.07;;
16804;SDS011;8520;50.102;20.010;2022-09-04T00:20:27;36.07;;;34.17;;
16804;SDS011;8520;50.102;20.010;2022-09-04T00:23:23;35.77;;;33.97;;
16804;SDS011;8520;50.102;20.010;2022-09-04T00:26:19;35.87;;;33.97;;
16804;SDS011;8520;50.102;20.010;2022-09-04T00:29:26;36.77;;;34.77;;
16804;SDS011;8520;50.102;20.010;2022-09-04T00:32:31;36.93;;;35.03;;
16804;SDS011;8520;50.102;20.010;2022-09-04T00:35:26;36.50;;;34.70;;
16804;SDS011;8520;50.102;20.010;2022-09-04T00:38:29;38.27;;;36.23;;
16804;SDS011;8520;50.102;20.010;2022-09-04T00:41:26;38.37;;;36.37;;
16804;SDS011;8520;50.102;20.010;2022-09-04T00:47:42;40.27;;;37.97;;
16804;SDS011;8520;50.102;20.010;2022-09-04T00:50:58;39.87;;;37.80;;
16804;SDS011;8520;50.102;20.010;2022-09-04T00:54:18;41.60;;;39.40;;
16804;SDS011;8520;50.102;20.010;2022-09-04T01:00:38;41.27;;;39.10;;
16804;SDS011;8520;50.102;20.010;2022-09-04T01:03:39;41.33;;;39.13;;
16804;SDS011;8520;50.102;20.010;2022-09-04T01:06:58;42.13;;;39.93;;
16804;SDS011;8520;50.102;20.010;2022-09-04T01:09:59;42.13;;;39.93;;
16804;SDS011;8520;50.102;20.010;2022-09-04T01:12:56;42.77;;;40.43;;
16804;SDS011;8520;50.102;20.010;2022-09-04T01:15:51;43.23;;;41.00;;
16804;SDS011;8520;50.102;20.010;2022-09-04T01:18:46;42.93;;;40.63;;
16804;SDS011;8520;50.102;20.010;2022-09-04T01:21:49;43.97;;;41.60;;
16804;SDS011;8520;50.102;20.010;2022-09-04T01:28:10;44.37;;;42.00;;
16804;SDS011;8520;50.102;20.010;2022-09-04T01:31:06;44.90;;;42.40;;
16804;SDS011;8520;50.102;20.010;2022-09-04T01:34:09;43.70;;;41.30;;
16804;SDS011;8520;50.102;20.010;2022-09-04T01:37:16;44.73;;;42.43;;
16804;SDS011;8520;50.102;20.010;2022-09-04T01:40:19;46.17;;;43.60;;
16804;SDS011;8520;50.102;20.010;2022-09-04T01:43:23;46.07;;;43.63;;
16804;SDS011;8520;50.102;20.010;2022-09-04T01:46:21;47.07;;;44.47;;
16804;SDS011;8520;50.102;20.010;2022-09-04T01:49:27;47.30;;;44.77;;
16804;SDS011;8520;50.102;20.010;2022-09-04T01:52:29;49.13;;;46.43;;
16804;SDS011;8520;50.102;20.010;2022-09-04T01:55:25;49.27;;;46.67;;
16804;SDS011;8520;50.102;20.010;2022-09-04T01:58:25;46.70;;;44.20;;
16804;SDS011;8520;50.102;20.010;2022-09-04T02:01:22;47.97;;;45.47;;
16804;SDS011;8520;50.102;20.010;2022-09-04T02:04:20;47.37;;;44.87;;
16804;SDS011;8520;50.102;20.010;2022-09-04T02:07:15;47.70;;;45.20;;
16804;SDS011;8520;50.102;20.010;2022-09-04T02:10:21;47.97;;;45.47;;
16804;SDS011;8520;50.102;20.010;2022-09-04T02:13:18;47.60;;;45.00;;
16804;SDS011;8520;50.102;20.010;2022-09-04T02:16:14;47.50;;;44.90;;
16804;SDS011;8520;50.102;20.010;2022-09-04T02:19:10;45.57;;;43.37;;
16804;SDS011;8520;50.102;20.010;2022-09-04T02:22:13;47.77;;;45.17;;
16804;SDS011;8520;50.102;20.010;2022-09-04T02:25:15;48.07;;;45.47;;
16804;SDS011;8520;50.102;20.010;2022-09-04T02:28:17;48.00;;;45.43;;
16804;SDS011;8520;50.102;20.010;2022-09-04T02:31:14;47.57;;;45.07;;
16804;SDS011;8520;50.102;20.010;2022-09-04T02:34:16;48.43;;;45.90;;
16804;SDS011;8520;50.102;20.010;2022-09-04T02:37:13;48.80;;;46.00;;
16804;SDS011;8520;50.102;20.010;2022-09-04T02:40:11;48.87;;;46.27;;
16804;SDS011;8520;50.102;20.010;2022-09-04T02:43:11;48.17;;;45.57;;
16804;SDS011;8520;50.102;20.010;2022-09-04T02:46:11;47.43;;;45.03;;
16804;SDS011;8520;50.102;20.010;2022-09-04T02:49:06;47.13;;;44.73;;
16804;SDS011;8520;50.102;20.010;2022-09-04T02:52:02;49.33;;;46.73;;
16804;SDS011;8520;50.102;20.010;2022-09-04T02:55:03;48.00;;;45.47;;
16804;SDS011;8520;50.102;20.010;2022-09-04T02:58:00;49.60;;;46.90;;
16804;SDS011;8520;50.102;20.010;2022-09-04T03:01:05;50.70;;;48.00;;
16804;SDS011;8520;50.102;20.010;2022-09-04T03:04:01;52.20;;;49.40;;
16804;SDS011;8520;50.102;20.010;2022-09-04T03:06:57;50.47;;;47.67;;
16804;SDS011;8520;50.102;20.010;2022-09-04T03:09:50;51.93;;;49.13;;
16804;SDS011;8520;50.102;20.010;2022-09-04T03:12:46;52.37;;;49.57;;
16804;SDS011;8520;50.102;20.010;2022-09-04T03:15:39;51.47;;;48.67;;
16804;SDS011;8520;50.102;20.010;2022-09-04T03:18:33;54.50;;;51.57;;
16804;SDS011;8520;50.102;20.010;2022-09-04T03:21:28;52.10;;;49.23;;
16804;SDS011;8520;50.102;20.010;2022-09-04T03:24:24;54.87;;;51.87;;
16804;SDS011;8520;50.102;20.010;2022-09-04T03:27:19;54.83;;;51.83;;
16804;SDS011;8520;50.102;20.010;2022-09-04T03:30:09;56.30;;;53.10;;
16804;SDS011;8520;50.102;20.010;2022-09-04T03:33:00;56.70;;;53.50;;
16804;SDS011;8520;50.102;20.010;2022-09-04T03:35:56;57.40;;;54.10;;
16804;SDS011;8520;50.102;20.010;2022-09-04T03:38:51;56.43;;;53.33;;
16804;SDS011;8520;50.102;20.010;2022-09-04T03:41:49;56.53;;;53.40;;
16804;SDS011;8520;50.102;20.010;2022-09-04T03:44:48;55.80;;;52.80;;
16804;SDS011;8520;50.102;20.010;2022-09-04T03:47:49;56.13;;;53.03;;
16804;SDS011;8520;50.102;20.010;2022-09-04T03:50:54;55.43;;;52.33;;
16804;SDS011;8520;50.102;20.010;2022-09-04T03:53:46;55.43;;;52.43;;
16804;SDS011;8520;50.102;20.010;2022-09-04T03:56:56;56.07;;;53.00;;
16804;SDS011;8520;50.102;20.010;2022-09-04T04:00:01;56.27;;;53.07;;
16804;SDS011;8520;50.102;20.010;2022-09-04T04:03:01;56.67;;;53.63;;
16804;SDS011;8520;50.102;20.010;2022-09-04T04:06:03;55.50;;;52.50;;
16804;SDS011;8520;50.102;20.010;2022-09-04T04:12:35;56.63;;;53.53;;
16804;SDS011;8520;50.102;20.010;2022-09-04T04:15:45;56.17;;;53.03;;
16804;SDS011;8520;50.102;20.010;2022-09-04T04:22:09;56.23;;;53.23;;
16804;SDS011;8520;50.102;20.010;2022-09-04T04:25:14;55.60;;;52.50;;
16804;SDS011;8520;50.102;20.010;2022-09-04T04:28:31;56.73;;;53.53;;
16804;SDS011;8520;50.102;20.010;2022-09-04T04:31:49;56.77;;;53.37;;
16804;SDS011;8520;50.102;20.010;2022-09-04T04:35:03;56.57;;;53.53;;
16804;SDS011;8520;50.102;20.010;2022-09-04T04:38:03;55.93;;;52.83;;
16804;SDS011;8520;50.102;20.010;2022-09-04T04:51:55;54.73;;;51.83;;
16804;SDS011;8520;50.102;20.010;2022-09-04T04:54:58;54.67;;;51.57;;
16804;SDS011;8520;50.102;20.010;2022-09-04T04:58:09;52.20;;;49.40;;
16804;SDS011;8520;50.102;20.010;2022-09-04T05:01:16;51.60;;;49.00;;
16804;SDS011;8520;50.102;20.010;2022-09-04T05:04:14;50.77;;;48.13;;
16804;SDS011;8520;50.102;20.010;2022-09-04T05:07:09;50.00;;;47.43;;
16804;SDS011;8520;50.102;20.010;2022-09-04T05:10:07;47.50;;;45.07;;
16804;SDS011;8520;50.102;20.010;2022-09-04T05:13:08;46.47;;;44.07;;
16804;SDS011;8520;50.102;20.010;2022-09-04T05:16:04;45.63;;;43.23;;
16804;SDS011;8520;50.102;20.010;2022-09-04T05:19:06;43.47;;;41.37;;
16804;SDS011;8520;50.102;20.010;2022-09-04T05:22:04;41.40;;;39.33;;
16804;SDS011;8520;50.102;20.010;2022-09-04T05:25:02;40.20;;;38.03;;
16804;SDS011;8520;50.102;20.010;2022-09-04T05:28:00;37.63;;;35.83;;
16804;SDS011;8520;50.102;20.010;2022-09-04T05:31:02;37.03;;;35.13;;
16804;SDS011;8520;50.102;20.010;2022-09-04T05:33:58;35.23;;;33.53;;
16804;SDS011;8520;50.102;20.010;2022-09-04T05:36:59;33.13;;;31.53;;
16804;SDS011;8520;50.102;20.010;2022-09-04T05:39:56;31.77;;;30.27;;
16804;SDS011;8520;50.102;20.010;2022-09-04T05:42:57;29.07;;;27.77;;
16804;SDS011;8520;50.102;20.010;2022-09-04T05:45:57;27.40;;;26.00;;
16804;SDS011;8520;50.102;20.010;2022-09-04T05:48:55;26.10;;;24.90;;
16804;SDS011;8520;50.102;20.010;2022-09-04T05:51:57;25.07;;;23.90;;
16804;SDS011;8520;50.102;20.010;2022-09-04T05:55:06;24.63;;;23.43;;
16804;SDS011;8520;50.102;20.010;2022-09-04T05:58:14;22.77;;;21.77;;
16804;SDS011;8520;50.102;20.010;2022-09-04T06:01:26;22.03;;;21.03;;
16804;SDS011;8520;50.102;20.010;2022-09-04T06:07:51;22.30;;;21.27;;
16804;SDS011;8520;50.102;20.010;2022-09-04T06:10:49;21.70;;;20.70;;
16804;SDS011;8520;50.102;20.010;2022-09-04T06:13:50;21.83;;;20.83;;
16804;SDS011;8520;50.102;20.010;2022-09-04T06:16:55;22.13;;;21.00;;
16804;SDS011;8520;50.102;20.010;2022-09-04T06:20:02;22.03;;;20.83;;
16804;SDS011;8520;50.102;20.010;2022-09-04T06:23:13;21.87;;;20.90;;
16804;SDS011;8520;50.102;20.010;2022-09-04T06:26:28;22.20;;;21.07;;
16804;SDS011;8520;50.102;20.010;2022-09-04T06:29:45;24.63;;;23.17;;
16804;SDS011;8520;50.102;20.010;2022-09-04T06:33:01;25.27;;;23.67;;
16804;SDS011;8520;50.102;20.010;2022-09-04T06:36:10;27.53;;;25.63;;
16804;SDS011;8520;50.102;20.010;2022-09-04T06:39:21;21.90;;;20.80;;
16804;SDS011;8520;50.102;20.010;2022-09-04T06:42:27;21.23;;;20.23;;
16804;SDS011;8520;50.102;20.010;2022-09-04T06:45:24;21.03;;;20.03;;
16804;SDS011;8520;50.102;20.010;2022-09-04T06:48:29;21.63;;;20.43;;
16804;SDS011;8520;50.102;20.010;2022-09-04T06:51:30;20.93;;;19.93;;
16804;SDS011;8520;50.102;20.010;2022-09-04T06:54:32;21.03;;;19.93;;
16804;SDS011;8520;50.102;20.010;2022-09-04T07:01:06;19.53;;;18.63;;
16804;SDS011;8520;50.102;20.010;2022-09-04T07:04:02;20.00;;;18.90;;
16804;SDS011;8520;50.102;20.010;2022-09-04T07:07:02;20.03;;;19.13;;
16804;SDS011;8520;50.102;20.010;2022-09-04T07:09:59;20.63;;;19.63;;
16804;SDS011;8520;50.102;20.010;2022-09-04T07:13:04;19.83;;;18.80;;
16804;SDS011;8520;50.102;20.010;2022-09-04T07:16:31;20.10;;;19.03;;
16804;SDS011;8520;50.102;20.010;2022-09-04T07:23:07;20.57;;;19.57;;
16804;SDS011;8520;50.102;20.010;2022-09-04T07:26:13;20.57;;;19.47;;
16804;SDS011;8520;50.102;20.010;2022-09-04T07:32:21;19.90;;;19.00;;
16804;SDS011;8520;50.102;20.010;2022-09-04T07:35:15;19.27;;;18.47;;
16804;SDS011;8520;50.102;20.010;2022-09-04T07:38:09;19.07;;;18.17;;
16804;SDS011;8520;50.102;20.010;2022-09-04T07:41:06;18.60;;;17.80;;
16804;SDS011;8520;50.102;20.010;2022-09-04T07:44:03;19.23;;;18.33;;
16804;SDS011;8520;50.102;20.010;2022-09-04T07:46:57;18.67;;;17.87;;
16804;SDS011;8520;50.102;20.010;2022-09-04T07:49:59;18.77;;;17.97;;
16804;SDS011;8520;50.102;20.010;2022-09-04T07:53:01;18.23;;;17.40;;
16804;SDS011;8520;50.102;20.010;2022-09-04T07:55:59;17.70;;;16.80;;
16804;SDS011;8520;50.102;20.010;2022-09-04T07:58:56;18.30;;;17.20;;
16804;SDS011;8520;50.102;20.010;2022-09-04T08:02:21;17.35;;;16.45;;
16804;SDS011;8520;50.102;20.010;2022-09-04T08:05:23;17.50;;;16.60;;
16804;SDS011;8520;50.102;20.010;2022-09-04T08:08:19;16.38;;;15.57;;
16804;SDS011;8520;50.102;20.010;2022-09-04T08:11:37;16.53;;;15.43;;
16804;SDS011;8520;50.102;20.010;2022-09-04T08:14:41;16.50;;;15.70;;
16804;SDS011;8520;50.102;20.010;2022-09-04T08:17:58;16.77;;;15.88;;
16804;SDS011;8520;50.102;20.010;2022-09-04T08:21:03;16.80;;;16.00;;
16804;SDS011;8520;50.102;20.010;2022-09-04T08:27:48;15.90;;;15.05;;
16804;SDS011;8520;50.102;20.010;2022-09-04T08:30:48;15.35;;;14.35;;
16804;SDS011;8520;50.102;20.010;2022-09-04T08:33:45;14.60;;;13.70;;
16804;SDS011;8520;50.102;20.010;2022-09-04T08:37:01;13.32;;;12.55;;
16804;SDS011;8520;50.102;20.010;2022-09-04T08:43:44;12.80;;;12.10;;
16804;SDS011;8520;50.102;20.010;2022-09-04T08:47:21;12.60;;;11.90;;
16804;SDS011;8520;50.102;20.010;2022-09-04T08:57:37;10.90;;;10.30;;
16804;SDS011;8520;50.102;20.010;2022-09-04T09:00:48;11.45;;;10.73;;
16804;SDS011;8520;50.102;20.010;2022-09-04T09:03:56;10.68;;;10.00;;
16804;SDS011;8520;50.102;20.010;2022-09-04T09:07:19;9.60;;;9.10;;
16804;SDS011;8520;50.102;20.010;2022-09-04T09:14:08;9.38;;;8.82;;
16804;SDS011;8520;50.102;20.010;2022-09-04T09:17:25;8.82;;;8.32;;
16804;SDS011;8520;50.102;20.010;2022-09-04T09:20:27;9.65;;;8.77;;
16804;SDS011;8520;50.102;20.010;2022-09-04T09:23:19;8.82;;;8.27;;
16804;SDS011;8520;50.102;20.010;2022-09-04T09:26:15;8.65;;;8.15;;
16804;SDS011;8520;50.102;20.010;2022-09-04T09:29:18;8.10;;;7.53;;
16804;SDS011;8520;50.102;20.010;2022-09-04T09:36:06;8.75;;;8.15;;
16804;SDS011;8520;50.102;20.010;2022-09-04T09:39:27;7.72;;;7.13;;
16804;SDS011;8520;50.102;20.010;2022-09-04T09:42:32;7.80;;;7.40;;
16804;SDS011;8520;50.102;20.010;2022-09-04T09:49:23;9.30;;;7.47;;
16804;SDS011;8520;50.102;20.010;2022-09-04T09:59:25;12.93;;;6.80;;
16804;SDS011;8520;50.102;20.010;2022-09-04T10:09:31;5.93;;;5.35;;
16804;SDS011;8520;50.102;20.010;2022-09-04T10:13:02;6.05;;;5.65;;
16804;SDS011;8520;50.102;20.010;2022-09-04T10:16:18;6.65;;;6.25;;
16804;SDS011;8520;50.102;20.010;2022-09-04T10:19:27;7.18;;;6.45;;
16804;SDS011;8520;50.102;20.010;2022-09-04T10:22:34;6.47;;;6.00;;
16804;SDS011;8520;50.102;20.010;2022-09-04T10:26:07;5.72;;;5.43;;
16804;SDS011;8520;50.102;20.010;2022-09-04T10:29:21;6.50;;;6.13;;
16804;SDS011;8520;50.102;20.010;2022-09-04T10:36:08;6.32;;;5.93;;
16804;SDS011;8520;50.102;20.010;2022-09-04T10:39:12;6.55;;;6.05;;
16804;SDS011;8520;50.102;20.010;2022-09-04T10:42:31;6.55;;;6.10;;
16804;SDS011;8520;50.102;20.010;2022-09-04T10:45:31;6.93;;;6.43;;
16804;SDS011;8520;50.102;20.010;2022-09-04T10:52:14;5.18;;;4.88;;
16804;SDS011;8520;50.102;20.010;2022-09-04T10:55:28;6.18;;;5.88;;
16804;SDS011;8520;50.102;20.010;2022-09-04T10:58:30;6.28;;;5.97;;
16804;SDS011;8520;50.102;20.010;2022-09-04T11:01:40;6.88;;;6.07;;
16804;SDS011;8520;50.102;20.010;2022-09-04T11:04:46;6.00;;;5.70;;
16804;SDS011;8520;50.102;20.010;2022-09-04T11:07:59;6.32;;;5.95;;
16804;SDS011;8520;50.102;20.010;2022-09-04T11:11:09;6.38;;;5.88;;
16804;SDS011;8520;50.102;20.010;2022-09-04T11:14:17;6.65;;;6.25;;
16804;SDS011;8520;50.102;20.010;2022-09-04T11:17:29;5.53;;;5.13;;
16804;SDS011;8520;50.102;20.010;2022-09-04T11:20:54;5.50;;;5.18;;
16804;SDS011;8520;50.102;20.010;2022-09-04T11:24:35;5.00;;;4.70;;
16804;SDS011;8520;50.102;20.010;2022-09-04T11:28:09;5.00;;;4.70;;
16804;SDS011;8520;50.102;20.010;2022-09-04T11:31:34;4.82;;;4.63;;
16804;SDS011;8520;50.102;20.010;2022-09-04T11:38:23;5.00;;;4.70;;
16804;SDS011;8520;50.102;20.010;2022-09-04T11:41:37;4.50;;;4.20;;
16804;SDS011;8520;50.102;20.010;2022-09-04T11:44:49;5.07;;;4.78;;
16804;SDS011;8520;50.102;20.010;2022-09-04T11:48:03;4.70;;;4.50;;
16804;SDS011;8520;50.102;20.010;2022-09-04T11:51:17;15.55;;;6.03;;
16804;SDS011;8520;50.102;20.010;2022-09-04T11:54:28;4.43;;;4.13;;
16804;SDS011;8520;50.102;20.010;2022-09-04T11:57:36;4.85;;;4.53;;
16804;SDS011;8520;50.102;20.010;2022-09-04T12:00:34;4.60;;;4.40;;
16804;SDS011;8520;50.102;20.010;2022-09-04T12:07:17;4.88;;;4.38;;
16804;SDS011;8520;50.102;20.010;2022-09-04T12:10:30;4.00;;;3.80;;
16804;SDS011;8520;50.102;20.010;2022-09-04T12:13:35;5.20;;;4.80;;
16804;SDS011;8520;50.102;20.010;2022-09-04T12:16:44;5.22;;;5.03;;
16804;SDS011;8520;50.102;20.010;2022-09-04T12:20:16;4.60;;;4.30;;
16804;SDS011;8520;50.102;20.010;2022-09-04T12:23:32;4.45;;;4.15;;
16804;SDS011;8520;50.102;20.010;2022-09-04T12:26:39;5.55;;;5.25;;
16804;SDS011;8520;50.102;20.010;2022-09-04T12:29:56;4.40;;;4.20;;
16804;SDS011;8520;50.102;20.010;2022-09-04T12:36:32;4.50;;;4.10;;
16804;SDS011;8520;50.102;20.010;2022-09-04T12:39:49;4.10;;;3.90;;
16804;SDS011;8520;50.102;20.010;2022-09-04T12:42:58;4.80;;;4.50;;
16804;SDS011;8520;50.102;20.010;2022-09-04T12:45:55;4.38;;;4.07;;
16804;SDS011;8520;50.102;20.010;2022-09-04T12:49:00;4.43;;;4.13;;
16804;SDS011;8520;50.102;20.010;2022-09-04T12:52:10;4.30;;;4.10;;
16804;SDS011;8520;50.102;20.010;2022-09-04T12:55:13;4.47;;;4.22;;
16804;SDS011;8520;50.102;20.010;2022-09-04T12:58:11;4.43;;;4.15;;
16804;SDS011;8520;50.102;20.010;2022-09-04T13:01:15;4.80;;;4.57;;
16804;SDS011;8520;50.102;20.010;2022-09-04T13:04:19;5.68;;;5.28;;
16804;SDS011;8520;50.102;20.010;2022-09-04T13:07:20;4.30;;;4.10;;
16804;SDS011;8520;50.102;20.010;2022-09-04T13:10:22;4.70;;;4.50;;
16804;SDS011;8520;50.102;20.010;2022-09-04T13:13:20;4.88;;;4.53;;
16804;SDS011;8520;50.102;20.010;2022-09-04T13:16:16;5.18;;;4.78;;
16804;SDS011;8520;50.102;20.010;2022-09-04T13:19:11;4.70;;;4.40;;
16804;SDS011;8520;50.102;20.010;2022-09-04T13:22:12;4.53;;;4.25;;
16804;SDS011;8520;50.102;20.010;2022-09-04T13:25:11;8.05;;;5.35;;
16804;SDS011;8520;50.102;20.010;2022-09-04T13:28:13;5.13;;;4.50;;
16804;SDS011;8520;50.102;20.010;2022-09-04T13:31:18;5.22;;;4.70;;
16804;SDS011;8520;50.102;20.010;2022-09-04T13:34:20;4.82;;;4.53;;
16804;SDS011;8520;50.102;20.010;2022-09-04T13:37:20;4.63;;;4.32;;
16804;SDS011;8520;50.102;20.010;2022-09-04T13:40:17;4.47;;;4.20;;
16804;SDS011;8520;50.102;20.010;2022-09-04T13:43:22;4.70;;;4.40;;
16804;SDS011;8520;50.102;20.010;2022-09-04T13:46:27;4.00;;;3.80;;
16804;SDS011;8520;50.102;20.010;2022-09-04T13:49:20;5.13;;;4.82;;
16804;SDS011;8520;50.102;20.010;2022-09-04T13:52:19;4.45;;;4.10;;
16804;SDS011;8520;50.102;20.010;2022-09-04T13:55:15;5.10;;;4.80;;
16804;SDS011;8520;50.102;20.010;2022-09-04T13:58:10;5.80;;;5.50;;
16804;SDS011;8520;50.102;20.010;2022-09-04T14:01:07;4.50;;;4.30;;
16804;SDS011;8520;50.102;20.010;2022-09-04T14:04:03;4.20;;;3.90;;
16804;SDS011;8520;50.102;20.010;2022-09-04T14:06:55;5.40;;;5.00;;
16804;SDS011;8520;50.102;20.010;2022-09-04T14:09:48;5.53;;;5.13;;
16804;SDS011;8520;50.102;20.010;2022-09-04T14:12:44;4.35;;;4.15;;
16804;SDS011;8520;50.102;20.010;2022-09-04T14:15:56;5.03;;;4.63;;
16804;SDS011;8520;50.102;20.010;2022-09-04T14:18:56;4.53;;;4.22;;
16804;SDS011;8520;50.102;20.010;2022-09-04T14:25:25;11.13;;;10.13;;
16804;SDS011;8520;50.102;20.010;2022-09-04T14:28:22;5.47;;;5.18;;
16804;SDS011;8520;50.102;20.010;2022-09-04T14:31:25;4.90;;;4.60;;
16804;SDS011;8520;50.102;20.010;2022-09-04T14:34:31;6.05;;;5.75;;
16804;SDS011;8520;50.102;20.010;2022-09-04T14:37:39;6.80;;;6.30;;
16804;SDS011;8520;50.102;20.010;2022-09-04T14:40:44;6.70;;;6.20;;
16804;SDS011;8520;50.102;20.010;2022-09-04T14:43:46;7.75;;;7.25;;
16804;SDS011;8520;50.102;20.010;2022-09-04T14:46:50;7.63;;;7.13;;
16804;SDS011;8520;50.102;20.010;2022-09-04T14:49:45;8.38;;;7.80;;
16804;SDS011;8520;50.102;20.010;2022-09-04T14:52:37;7.50;;;6.93;;
16804;SDS011;8520;50.102;20.010;2022-09-04T14:55:29;7.80;;;7.28;;
16804;SDS011;8520;50.102;20.010;2022-09-04T14:58:20;8.57;;;8.07;;
16804;SDS011;8520;50.102;20.010;2022-09-04T15:01:18;8.80;;;8.15;;
16804;SDS011;8520;50.102;20.010;2022-09-04T15:04:10;8.52;;;8.02;;
16804;SDS011;8520;50.102;20.010;2022-09-04T15:07:16;9.73;;;9.15;;
16804;SDS011;8520;50.102;20.010;2022-09-04T15:10:17;9.25;;;8.68;;
16804;SDS011;8520;50.102;20.010;2022-09-04T15:13:21;10.00;;;9.27;;
16804;SDS011;8520;50.102;20.010;2022-09-04T15:16:27;9.07;;;8.48;;
16804;SDS011;8520;50.102;20.010;2022-09-04T15:19:36;9.82;;;9.23;;
16804;SDS011;8520;50.102;20.010;2022-09-04T15:22:37;10.30;;;9.60;;
16804;SDS011;8520;50.102;20.010;2022-09-04T15:25:42;12.02;;;11.32;;
16804;SDS011;8520;50.102;20.010;2022-09-04T15:28:46;11.70;;;11.00;;
16804;SDS011;8520;50.102;20.010;2022-09-04T15:31:39;13.25;;;12.45;;
16804;SDS011;8520;50.102;20.010;2022-09-04T15:34:29;13.82;;;13.02;;
16804;SDS011;8520;50.102;20.010;2022-09-04T15:37:19;14.65;;;13.75;;
16804;SDS011;8520;50.102;20.010;2022-09-04T15:40:14;15.38;;;14.48;;
16804;SDS011;8520;50.102;20.010;2022-09-04T15:43:10;16.30;;;15.35;;
16804;SDS011;8520;50.102;20.010;2022-09-04T15:46:10;17.05;;;15.95;;
16804;SDS011;8520;50.102;20.010;2022-09-04T15:49:18;17.15;;;16.15;;
16804;SDS011;8520;50.102;20.010;2022-09-04T15:52:23;17.40;;;16.30;;
16804;SDS011;8520;50.102;20.010;2022-09-04T15:55:19;19.33;;;18.15;;
16804;SDS011;8520;50.102;20.010;2022-09-04T15:58:12;18.33;;;17.20;;
16804;SDS011;8520;50.102;20.010;2022-09-04T16:01:09;19.63;;;18.52;;
16804;SDS011;8520;50.102;20.010;2022-09-04T16:04:04;18.90;;;18.00;;
16804;SDS011;8520;50.102;20.010;2022-09-04T16:07:06;18.95;;;18.02;;
16804;SDS011;8520;50.102;20.010;2022-09-04T16:10:22;20.65;;;19.65;;
16804;SDS011;8520;50.102;20.010;2022-09-04T16:13:34;21.45;;;20.35;;
16804;SDS011;8520;50.102;20.010;2022-09-04T16:16:33;22.90;;;21.58;;
16804;SDS011;8520;50.102;20.010;2022-09-04T16:19:28;23.33;;;22.13;;
16804;SDS011;8520;50.102;20.010;2022-09-04T16:22:24;23.70;;;22.50;;
16804;SDS011;8520;50.102;20.010;2022-09-04T16:25:21;24.92;;;23.48;;
16804;SDS011;8520;50.102;20.010;2022-09-04T16:28:15;26.42;;;25.13;;
16804;SDS011;8520;50.102;20.010;2022-09-04T16:31:12;27.52;;;26.05;;
16804;SDS011;8520;50.102;20.010;2022-09-04T16:34:12;27.08;;;25.70;;
16804;SDS011;8520;50.102;20.010;2022-09-04T16:37:12;25.52;;;24.33;;
16804;SDS011;8520;50.102;20.010;2022-09-04T16:40:13;27.52;;;25.92;;
16804;SDS011;8520;50.102;20.010;2022-09-04T16:43:16;27.67;;;26.17;;
16804;SDS011;8520;50.102;20.010;2022-09-04T16:46:11;27.27;;;25.90;;
16804;SDS011;8520;50.102;20.010;2022-09-04T16:49:14;28.20;;;26.75;;
16804;SDS011;8520;50.102;20.010;2022-09-04T16:52:30;28.50;;;27.00;;
16804;SDS011;8520;50.102;20.010;2022-09-04T16:55:26;29.48;;;28.13;;
16804;SDS011;8520;50.102;20.010;2022-09-04T16:58:26;30.15;;;28.65;;
16804;SDS011;8520;50.102;20.010;2022-09-04T17:01:25;30.92;;;29.23;;
16804;SDS011;8520;50.102;20.010;2022-09-04T17:07:29;31.73;;;30.02;;
16804;SDS011;8520;50.102;20.010;2022-09-04T17:10:30;31.80;;;30.10;;
16804;SDS011;8520;50.102;20.010;2022-09-04T17:13:28;31.35;;;29.55;;
16804;SDS011;8520;50.102;20.010;2022-09-04T17:16:23;32.70;;;31.00;;
16804;SDS011;8520;50.102;20.010;2022-09-04T17:19:18;32.75;;;30.98;;
16804;SDS011;8520;50.102;20.010;2022-09-04T17:22:12;34.40;;;32.53;;
16804;SDS011;8520;50.102;20.010;2022-09-04T17:25:43;35.78;;;33.88;;
16804;SDS011;8520;50.102;20.010;2022-09-04T17:28:55;37.00;;;35.00;;
16804;SDS011;8520;50.102;20.010;2022-09-04T17:32:10;39.33;;;37.22;;
16804;SDS011;8520;50.102;20.010;2022-09-04T17:35:29;38.13;;;36.10;;
16804;SDS011;8520;50.102;20.010;2022-09-04T17:38:45;38.83;;;36.70;;
16804;SDS011;8520;50.102;20.010;2022-09-04T17:42:00;38.72;;;36.42;;
16804;SDS011;8520;50.102;20.010;2022-09-04T17:44:59;36.72;;;34.83;;
16804;SDS011;8520;50.102;20.010;2022-09-04T17:47:58;37.55;;;35.38;;
16804;SDS011;8520;50.102;20.010;2022-09-04T17:50:48;37.17;;;35.03;;
16804;SDS011;8520;50.102;20.010;2022-09-04T17:53:44;37.10;;;35.10;;
16804;SDS011;8520;50.102;20.010;2022-09-04T17:56:38;37.55;;;35.22;;
16804;SDS011;8520;50.102;20.010;2022-09-04T17:59:32;38.25;;;36.15;;
16804;SDS011;8520;50.102;20.010;2022-09-04T18:02:33;37.55;;;35.55;;
16804;SDS011;8520;50.102;20.010;2022-09-04T18:05:30;37.47;;;35.42;;
16804;SDS011;8520;50.102;20.010;2022-09-04T18:08:31;37.80;;;35.80;;
16804;SDS011;8520;50.102;20.010;2022-09-04T18:11:33;36.60;;;34.50;;
16804;SDS011;8520;50.102;20.010;2022-09-04T18:14:50;36.53;;;34.58;;
16804;SDS011;8520;50.102;20.010;2022-09-04T18:18:10;36.83;;;34.70;;
16804;SDS011;8520;50.102;20.010;2022-09-04T18:21:06;35.88;;;34.08;;
16804;SDS011;8520;50.102;20.010;2022-09-04T18:24:00;36.08;;;34.08;;
16804;SDS011;8520;50.102;20.010;2022-09-04T18:26:55;35.17;;;33.38;;
16804;SDS011;8520;50.102;20.010;2022-09-04T18:29:51;35.03;;;33.22;;
16804;SDS011;8520;50.102;20.010;2022-09-04T18:33:08;37.55;;;35.15;;
16804;SDS011;8520;50.102;20.010;2022-09-04T18:36:23;36.65;;;34.65;;
16804;SDS011;8520;50.102;20.010;2022-09-04T18:39:39;38.22;;;36.13;;
16804;SDS011;8520;50.102;20.010;2022-09-04T18:42:38;37.80;;;35.72;;
16804;SDS011;8520;50.102;20.010;2022-09-04T18:45:55;39.13;;;36.95;;
16804;SDS011;8520;50.102;20.010;2022-09-04T18:49:07;40.78;;;38.50;;
16804;SDS011;8520;50.102;20.010;2022-09-04T18:52:19;40.58;;;38.28;;
16804;SDS011;8520;50.102;20.010;2022-09-04T18:55:18;40.40;;;38.03;;
16804;SDS011;8520;50.102;20.010;2022-09-04T18:58:17;41.67;;;39.17;;
16804;SDS011;8520;50.102;20.010;2022-09-04T19:01:25;41.22;;;38.92;;
16804;SDS011;8520;50.102;20.010;2022-09-04T19:04:27;38.33;;;36.20;;
16804;SDS011;8520;50.102;20.010;2022-09-04T19:07:24;39.08;;;36.88;;
16804;SDS011;8520;50.102;20.010;2022-09-04T19:10:19;36.85;;;34.85;;
16804;SDS011;8520;50.102;20.010;2022-09-04T19:13:11;37.95;;;35.85;;
16804;SDS011;8520;50.102;20.010;2022-09-04T19:16:11;37.53;;;35.08;;
16804;SDS011;8520;50.102;20.010;2022-09-04T19:19:07;42.40;;;39.63;;
16804;SDS011;8520;50.102;20.010;2022-09-04T19:22:04;34.83;;;33.03;;
16804;SDS011;8520;50.102;20.010;2022-09-04T19:24:59;33.13;;;31.48;;
16804;SDS011;8520;50.102;20.010;2022-09-04T19:27:52;31.25;;;29.45;;
16804;SDS011;8520;50.102;20.010;2022-09-04T19:30:50;31.08;;;29.33;;
16804;SDS011;8520;50.102;20.010;2022-09-04T19:33:42;28.73;;;27.33;;
16804;SDS011;8520;50.102;20.010;2022-09-04T19:36:37;27.95;;;26.50;;
16804;SDS011;8520;50.102;20.010;2022-09-04T19:39:31;27.40;;;25.88;;
16804;SDS011;8520;50.102;20.010;2022-09-04T19:42:43;27.38;;;25.73;;
16804;SDS011;8520;50.102;20.010;2022-09-04T19:46:00;26.60;;;25.20;;